< < Back
Terminal Aerodrome Forecast


Current Version              Previous Versions:   1  2  3  4  5  6  7  8  9  

Terminal Aerodrome Forecast

927
FTUS42 KMLB 212100 AAA
TAFMCO
TAF AMD
KMCO 212110Z 2121/2218 17005KT P6SM VCSH SCT050 BKN210 OVC260
     FM220000 VRB03KT P6SM BKN250
     FM221400 36006KT P6SM BKN250=

Latest METAR

155
SAUS70 KWBC 220800 RRE
MTRMCO
METAR KMCO 220753Z 00000KT 1SM R35L/P6000FT FEW003 BKN250 21/21 A2993
RMK AO2 SFC VIS 7 SLP132 T02110211


USA.gov is the U.S. government's official web portal to all federal, state and local government web resources and services.